Taiki Maru — JI3464 — position and weather

sailwx.info

Track history (hours):
 
Tides and Currents Weather Stations Pressure Air Temp Water Temp Dewpoint Dewpoint Depression Visibility Wind Speed Wind Dir Waves Ship Positions

Taiki Maru

Last reported at 2017-Jan-16 17:18 UTC. Time now 2017-Jan-19 00:09 UTC.
Position N 34°39' E 134°49'.

Length 93 m; draft 5.2 m.

Type: Cargo ship. MMSI: 431300622.

Date/timePositionNaut miles runAvg speedWind from/ knotsBaromVisibWave heightAir tempDewpointWater temp
2017-Jan-16 17:18N 34°39' E 134°49'1012.6
2017-Jan-16 16:33N 34°37' E 135°01'1712.0
2017-Jan-16 15:08N 34°20' E 135°01'813.5
2017-Jan-16 14:34N 34°13' E 134°59'1313.4
2017-Jan-16 13:33N 33°59' E 134°60'24410.1
2017-Jan-15 13:32N 35°08' E 139°44'1211.8
2017-Jan-15 12:34N 35°19' E 139°43'1313.0
2017-Jan-15 11:33N 35°30' E 139°52'6 5.4
2017-Jan-15 10:31N 35°35' E 139°56'0 0.0
2017-Jan-15 09:31N 35°35' E 139°56'0 0.0
2017-Jan-15 08:28N 35°35' E 139°56'0 0.0
2017-Jan-15 07:31N 35°35' E 139°56'0 0.0
2017-Jan-15 06:28N 35°35' E 139°56'0 0.0
2017-Jan-15 05:31N 35°35' E 139°56'0 0.0
2017-Jan-15 04:31N 35°35' E 139°56'0 0.0
2017-Jan-15 03:28N 35°35' E 139°56'0 0.0
2017-Jan-15 02:31N 35°35' E 139°56'0 0.0
2017-Jan-15 01:31N 35°35' E 139°56'0 0.0
2017-Jan-15 00:28N 35°35' E 139°56'0 0.0
2017-Jan-14 23:31N 35°35' E 139°56'0 0.0
2017-Jan-14 22:31N 35°35' E 139°56'0 0.0
2017-Jan-14 21:31N 35°35' E 139°56'0 0.0
2017-Jan-14 20:31N 35°35' E 139°56'0 0.0
2017-Jan-14 19:31N 35°35' E 139°56'0 0.0
2017-Jan-14 18:31N 35°35' E 139°56'0 0.0
2017-Jan-14 17:31N 35°35' E 139°56'0 0.1
2017-Jan-14 16:31N 35°35' E 139°56'0 0.0
2017-Jan-14 15:31N 35°35' E 139°56'0 0.0
2017-Jan-14 14:28N 35°35' E 139°56'0 0.1
2017-Jan-14 13:31N 35°35' E 139°56'0 0.0
2017-Jan-14 12:31N 35°35' E 139°56'0 0.0
2017-Jan-14 11:31N 35°35' E 139°56'0 0.0
2017-Jan-14 10:31N 35°35' E 139°56'0 0.0
2017-Jan-14 09:31N 35°35' E 139°56'0 0.0
2017-Jan-14 08:28N 35°35' E 139°56'0 0.0
2017-Jan-14 07:28N 35°35' E 139°56'0 0.0
2017-Jan-14 06:19N 35°35' E 139°56'0 0.0
2017-Jan-14 05:25N 35°35' E 139°56'2 2.9
2017-Jan-14 04:33N 35°32' E 139°57'5 0.2
2017-Jan-13 02:33N 35°28' E 139°59'8 6.6
2017-Jan-13 01:23N 35°35' E 139°55'0 0.0
2017-Jan-13 00:32N 35°35' E 139°55'0 0.1
2017-Jan-12 23:33N 35°35' E 139°55'0 0.0
2017-Jan-12 22:33N 35°35' E 139°55'0 0.0
2017-Jan-12 21:33N 35°35' E 139°55'0 0.0
2017-Jan-12 20:33N 35°35' E 139°55'0 0.0
2017-Jan-12 19:33N 35°35' E 139°55'0 0.0
2017-Jan-12 18:33N 35°35' E 139°55'0 0.0
2017-Jan-12 17:33N 35°35' E 139°55'0 0.1
2017-Jan-12 16:33N 35°35' E 139°55'0 0.1
2017-Jan-12 15:33N 35°35' E 139°55'2 1.5
2017-Jan-12 14:33N 35°33' E 139°55'1313.2
2017-Jan-12 13:33N 35°23' E 139°45'1211.9
2017-Jan-12 12:33N 35°11' E 139°47'7 0.8
2017-Jan-12 04:08N 35°06' E 139°41'713.1
2017-Jan-12 03:33N 35°12' E 139°46'10 9.7
2017-Jan-12 02:33N 35°22' E 139°44'0 0.1
2017-Jan-12 01:28N 35°22' E 139°44'0 0.1
2017-Jan-12 00:31N 35°22' E 139°44'0 0.0
2017-Jan-11 23:31N 35°21' E 139°44'0 0.1
2017-Jan-11 22:31N 35°22' E 139°44'0 0.1
2017-Jan-11 21:31N 35°21' E 139°44'0 0.0
2017-Jan-11 20:31N 35°22' E 139°44'5 5.0
2017-Jan-11 19:33N 35°17' E 139°45'1312.9
2017-Jan-11 18:33N 35°04' E 139°44'5 0.7
2017-Jan-11 10:15N 35°03' E 139°37'912.7
2017-Jan-11 09:33N 35°10' E 139°44'1211.9
2017-Jan-11 08:33N 35°21' E 139°42'1312.9
2017-Jan-11 07:34N 35°30' E 139°54'4 1.8
2017-Jan-11 05:08N 35°28' E 139°59'1 0.0
2017-Jan-10 05:33N 35°29' E 139°59'1211.9
2017-Jan-10 04:34N 35°26' E 139°44'3 2.7
2017-Jan-10 03:33N 35°26' E 139°41'0 0.0
2017-Jan-10 02:33N 35°26' E 139°41'0 0.0
2017-Jan-10 01:33N 35°26' E 139°41'0 0.0
2017-Jan-10 00:34N 35°26' E 139°41'0 0.0
2017-Jan-09 23:33N 35°26' E 139°41'0 0.0
2017-Jan-09 22:34N 35°26' E 139°41'3 3.4
2017-Jan-09 21:33N 35°23' E 139°44'0 0.0
2017-Jan-09 20:33N 35°23' E 139°44'0 0.0
2017-Jan-09 19:33N 35°23' E 139°44'0 0.0
2017-Jan-09 18:33N 35°23' E 139°44'0 0.1
2017-Jan-09 17:33N 35°23' E 139°44'0 0.1
2017-Jan-09 16:33N 35°23' E 139°44'0 0.0
2017-Jan-09 15:33N 35°23' E 139°44'0 0.1
2017-Jan-09 14:33N 35°23' E 139°44'3 3.1
2017-Jan-09 13:34N 35°20' E 139°43'1211.5
2017-Jan-09 12:33N 35°09' E 139°46'241 9.6
2017-Jan-08 11:32N 34°07' E 135°03'5 4.7
2017-Jan-08 10:33N 34°10' E 135°07'0 0.0
2017-Jan-08 09:33N 34°10' E 135°07'0 0.0
2017-Jan-08 08:33N 34°10' E 135°07'0 0.0
2017-Jan-08 07:33N 34°10' E 135°07'0 0.0
2017-Jan-08 06:33N 34°10' E 135°07'0 0.0
2017-Jan-08 05:33N 34°10' E 135°07'0 0.0
2017-Jan-08 04:33N 34°10' E 135°07'0 0.0
2017-Jan-08 03:33N 34°10' E 135°07'2 2.3
2017-Jan-08 02:34N 34°12' E 135°06'2 2.3
2017-Jan-08 01:32N 34°14' E 135°08'0 0.0
2017-Jan-08 00:32N 34°14' E 135°08'0 0.0
2017-Jan-07 23:32N 34°14' E 135°08'0 0.0
2017-Jan-07 22:32N 34°14' E 135°08'0 0.0
2017-Jan-07 21:32N 34°14' E 135°08'0 0.0
2017-Jan-07 20:32N 34°14' E 135°08'0 0.0
2017-Jan-07 19:32N 34°14' E 135°08'0 0.0
2017-Jan-07 18:32N 34°14' E 135°08'0 0.0
2017-Jan-07 17:34N 34°14' E 135°08'3 2.5
2017-Jan-07 16:33N 34°12' E 135°06'3 3.4
2017-Jan-07 15:33N 34°10' E 135°08'0 0.0
2017-Jan-07 14:33N 34°10' E 135°08'0 0.0
2017-Jan-07 13:33N 34°10' E 135°08'0 0.0
2017-Jan-07 12:33N 34°10' E 135°08'0 0.0
2017-Jan-07 11:30N 34°10' E 135°08'0 0.0
2017-Jan-07 10:33N 34°10' E 135°08'0 0.0
2017-Jan-07 09:33N 34°10' E 135°08'0 0.0
2017-Jan-07 08:33N 34°10' E 135°08'0 0.0
2017-Jan-07 07:33N 34°10' E 135°08'0 0.0
2017-Jan-07 06:33N 34°10' E 135°08'0 0.1
2017-Jan-07 05:33N 34°10' E 135°08'0 0.0
2017-Jan-07 04:33N 34°10' E 135°08'0 0.0
2017-Jan-07 03:33N 34°10' E 135°08'0 0.0
2017-Jan-07 02:33N 34°10' E 135°08'0 0.1
2017-Jan-07 01:33N 34°10' E 135°08'0 0.0
2017-Jan-07 00:33N 34°10' E 135°08'0 0.1
2017-Jan-06 23:33N 34°10' E 135°08'0 0.1
2017-Jan-06 22:33N 34°10' E 135°08'0 0.1
2017-Jan-06 21:33N 34°10' E 135°08'0 0.0
2017-Jan-06 20:33N 34°10' E 135°08'1 1.3
2017-Jan-06 19:33N 34°09' E 135°07'1312.0
2017-Jan-06 18:30N 33°59' E 134°58'  
Track history (hours):
 
Tides and Currents Weather Stations Pressure Air Temp Water Temp Dewpoint Dewpoint Depression Visibility Wind Speed Wind Dir Waves Ship Positions

Taiki Maru

Last reported at 2017-Jan-16 17:18 UTC. Time now 2017-Jan-19 00:09 UTC.
Position N 34°39' E 134°49'.

Length 93 m; draft 5.2 m.

Type: Cargo ship. MMSI: 431300622.

Date/timePositionNaut miles runAvg speedWind from/ knotsBaromVisibWave heightAir tempDewpointWater temp
2017-Jan-16 17:18N 34°39' E 134°49'1012.6
2017-Jan-16 16:33N 34°37' E 135°01'1712.0
2017-Jan-16 15:08N 34°20' E 135°01'813.5
2017-Jan-16 14:34N 34°13' E 134°59'1313.4
2017-Jan-16 13:33N 33°59' E 134°60'24410.1
2017-Jan-15 13:32N 35°08' E 139°44'1211.8
2017-Jan-15 12:34N 35°19' E 139°43'1313.0
2017-Jan-15 11:33N 35°30' E 139°52'6 5.4
2017-Jan-15 10:31N 35°35' E 139°56'0 0.0
2017-Jan-15 09:31N 35°35' E 139°56'0 0.0
2017-Jan-15 08:28N 35°35' E 139°56'0 0.0
2017-Jan-15 07:31N 35°35' E 139°56'0 0.0
2017-Jan-15 06:28N 35°35' E 139°56'0 0.0
2017-Jan-15 05:31N 35°35' E 139°56'0 0.0
2017-Jan-15 04:31N 35°35' E 139°56'0 0.0
2017-Jan-15 03:28N 35°35' E 139°56'0 0.0
2017-Jan-15 02:31N 35°35' E 139°56'0 0.0
2017-Jan-15 01:31N 35°35' E 139°56'0 0.0
2017-Jan-15 00:28N 35°35' E 139°56'0 0.0
2017-Jan-14 23:31N 35°35' E 139°56'0 0.0
2017-Jan-14 22:31N 35°35' E 139°56'0 0.0
2017-Jan-14 21:31N 35°35' E 139°56'0 0.0
2017-Jan-14 20:31N 35°35' E 139°56'0 0.0
2017-Jan-14 19:31N 35°35' E 139°56'0 0.0
2017-Jan-14 18:31N 35°35' E 139°56'0 0.0
2017-Jan-14 17:31N 35°35' E 139°56'0 0.1
2017-Jan-14 16:31N 35°35' E 139°56'0 0.0
2017-Jan-14 15:31N 35°35' E 139°56'0 0.0
2017-Jan-14 14:28N 35°35' E 139°56'0 0.1
2017-Jan-14 13:31N 35°35' E 139°56'0 0.0
2017-Jan-14 12:31N 35°35' E 139°56'0 0.0
2017-Jan-14 11:31N 35°35' E 139°56'0 0.0
2017-Jan-14 10:31N 35°35' E 139°56'0 0.0
2017-Jan-14 09:31N 35°35' E 139°56'0 0.0
2017-Jan-14 08:28N 35°35' E 139°56'0 0.0
2017-Jan-14 07:28N 35°35' E 139°56'0 0.0
2017-Jan-14 06:19N 35°35' E 139°56'0 0.0
2017-Jan-14 05:25N 35°35' E 139°56'2 2.9
2017-Jan-14 04:33N 35°32' E 139°57'5 0.2
2017-Jan-13 02:33N 35°28' E 139°59'8 6.6
2017-Jan-13 01:23N 35°35' E 139°55'0 0.0
2017-Jan-13 00:32N 35°35' E 139°55'0 0.1
2017-Jan-12 23:33N 35°35' E 139°55'0 0.0
2017-Jan-12 22:33N 35°35' E 139°55'0 0.0
2017-Jan-12 21:33N 35°35' E 139°55'0 0.0
2017-Jan-12 20:33N 35°35' E 139°55'0 0.0
2017-Jan-12 19:33N 35°35' E 139°55'0 0.0
2017-Jan-12 18:33N 35°35' E 139°55'0 0.0
2017-Jan-12 17:33N 35°35' E 139°55'0 0.1
2017-Jan-12 16:33N 35°35' E 139°55'0 0.1
2017-Jan-12 15:33N 35°35' E 139°55'2 1.5
2017-Jan-12 14:33N 35°33' E 139°55'1313.2
2017-Jan-12 13:33N 35°23' E 139°45'1211.9
2017-Jan-12 12:33N 35°11' E 139°47'7 0.8
2017-Jan-12 04:08N 35°06' E 139°41'713.1
2017-Jan-12 03:33N 35°12' E 139°46'10 9.7
2017-Jan-12 02:33N 35°22' E 139°44'0 0.1
2017-Jan-12 01:28N 35°22' E 139°44'0 0.1
2017-Jan-12 00:31N 35°22' E 139°44'0 0.0
2017-Jan-11 23:31N 35°21' E 139°44'0 0.1
2017-Jan-11 22:31N 35°22' E 139°44'0 0.1
2017-Jan-11 21:31N 35°21' E 139°44'0 0.0
2017-Jan-11 20:31N 35°22' E 139°44'5 5.0
2017-Jan-11 19:33N 35°17' E 139°45'1312.9
2017-Jan-11 18:33N 35°04' E 139°44'5 0.7
2017-Jan-11 10:15N 35°03' E 139°37'912.7
2017-Jan-11 09:33N 35°10' E 139°44'1211.9
2017-Jan-11 08:33N 35°21' E 139°42'1312.9
2017-Jan-11 07:34N 35°30' E 139°54'4 1.8
2017-Jan-11 05:08N 35°28' E 139°59'1 0.0
2017-Jan-10 05:33N 35°29' E 139°59'1211.9
2017-Jan-10 04:34N 35°26' E 139°44'3 2.7
2017-Jan-10 03:33N 35°26' E 139°41'0 0.0
2017-Jan-10 02:33N 35°26' E 139°41'0 0.0
2017-Jan-10 01:33N 35°26' E 139°41'0 0.0
2017-Jan-10 00:34N 35°26' E 139°41'0 0.0
2017-Jan-09 23:33N 35°26' E 139°41'0 0.0
2017-Jan-09 22:34N 35°26' E 139°41'3 3.4
2017-Jan-09 21:33N 35°23' E 139°44'0 0.0
2017-Jan-09 20:33N 35°23' E 139°44'0 0.0
2017-Jan-09 19:33N 35°23' E 139°44'0 0.0
2017-Jan-09 18:33N 35°23' E 139°44'0 0.1
2017-Jan-09 17:33N 35°23' E 139°44'0 0.1
2017-Jan-09 16:33N 35°23' E 139°44'0 0.0
2017-Jan-09 15:33N 35°23' E 139°44'0 0.1
2017-Jan-09 14:33N 35°23' E 139°44'3 3.1
2017-Jan-09 13:34N 35°20' E 139°43'1211.5
2017-Jan-09 12:33N 35°09' E 139°46'241 9.6
2017-Jan-08 11:32N 34°07' E 135°03'5 4.7
2017-Jan-08 10:33N 34°10' E 135°07'0 0.0
2017-Jan-08 09:33N 34°10' E 135°07'0 0.0
2017-Jan-08 08:33N 34°10' E 135°07'0 0.0
2017-Jan-08 07:33N 34°10' E 135°07'0 0.0
2017-Jan-08 06:33N 34°10' E 135°07'0 0.0
2017-Jan-08 05:33N 34°10' E 135°07'0 0.0
2017-Jan-08 04:33N 34°10' E 135°07'0 0.0
2017-Jan-08 03:33N 34°10' E 135°07'2 2.3
2017-Jan-08 02:34N 34°12' E 135°06'2 2.3
2017-Jan-08 01:32N 34°14' E 135°08'0 0.0
2017-Jan-08 00:32N 34°14' E 135°08'0 0.0
2017-Jan-07 23:32N 34°14' E 135°08'0 0.0
2017-Jan-07 22:32N 34°14' E 135°08'0 0.0
2017-Jan-07 21:32N 34°14' E 135°08'0 0.0
2017-Jan-07 20:32N 34°14' E 135°08'0 0.0
2017-Jan-07 19:32N 34°14' E 135°08'0 0.0
2017-Jan-07 18:32N 34°14' E 135°08'0 0.0
2017-Jan-07 17:34N 34°14' E 135°08'3 2.5
2017-Jan-07 16:33N 34°12' E 135°06'3 3.4
2017-Jan-07 15:33N 34°10' E 135°08'0 0.0
2017-Jan-07 14:33N 34°10' E 135°08'0 0.0
2017-Jan-07 13:33N 34°10' E 135°08'0 0.0
2017-Jan-07 12:33N 34°10' E 135°08'0 0.0
2017-Jan-07 11:30N 34°10' E 135°08'0 0.0
2017-Jan-07 10:33N 34°10' E 135°08'0 0.0
2017-Jan-07 09:33N 34°10' E 135°08'0 0.0
2017-Jan-07 08:33N 34°10' E 135°08'0 0.0
2017-Jan-07 07:33N 34°10' E 135°08'0 0.0
2017-Jan-07 06:33N 34°10' E 135°08'0 0.1
2017-Jan-07 05:33N 34°10' E 135°08'0 0.0
2017-Jan-07 04:33N 34°10' E 135°08'0 0.0
2017-Jan-07 03:33N 34°10' E 135°08'0 0.0
2017-Jan-07 02:33N 34°10' E 135°08'0 0.1
2017-Jan-07 01:33N 34°10' E 135°08'0 0.0
2017-Jan-07 00:33N 34°10' E 135°08'0 0.1
2017-Jan-06 23:33N 34°10' E 135°08'0 0.1
2017-Jan-06 22:33N 34°10' E 135°08'0 0.1
2017-Jan-06 21:33N 34°10' E 135°08'0 0.0
2017-Jan-06 20:33N 34°10' E 135°08'1 1.3
2017-Jan-06 19:33N 34°09' E 135°07'1312.0
2017-Jan-06 18:30N 33°59' E 134°58'  

Dump ship's entire track history